Time;durP1;ratioP1;P1;durP2;ratioP2;P2;SDS_P1;SDS_P2;PMS_P1;PMS_P2;Temp;Humidity;BMP_temperature;BMP_pressure;BME280_temperature;BME280_humidity;BME280_pressure;Samples;Min_cycle;Max_cycle;Signal;HPM_P1;HPM_P2
2023/09/08 00:00:10;;;;;;;19.00;12.80;;;;;;;12.91;100.00;99882.13;272970;1271;23349;-85
2023/09/08 00:06:31;;;;;;;18.80;12.90;;;;;;;12.81;100.00;99880.79;273088;1277;22268;-85
2023/09/08 00:12:33;;;;;;;19.10;12.90;;;;;;;12.72;100.00;99877.20;273234;1273;22189;-85
2023/09/08 00:18:36;;;;;;;18.50;11.60;;;;;;;12.72;100.00;99874.77;273162;1273;22832;-85
2023/09/08 00:24:41;;;;;;;18.70;11.00;;;;;;;12.77;100.00;99875.48;273117;1273;22198;-85
2023/09/08 00:30:42;;;;;;;18.90;11.30;;;;;;;12.79;100.00;99880.20;273114;1267;22313;-85
2023/09/08 00:36:44;;;;;;;19.30;12.10;;;;;;;12.71;100.00;99881.25;273374;1274;23001;-85
2023/09/08 00:42:46;;;;;;;16.30;12.00;;;;;;;12.67;100.00;99878.05;273066;1273;22353;-85
2023/09/08 00:48:48;;;;;;;19.90;11.60;;;;;;;12.66;100.00;99875.53;272715;1272;23704;-85
2023/09/08 00:54:52;;;;;;;15.90;11.20;;;;;;;12.68;100.00;99873.36;273087;1272;22206;-84
2023/09/08 01:00:54;;;;;;;16.70;11.50;;;;;;;12.63;100.00;99874.14;273205;1274;23057;-85
2023/09/08 01:06:56;;;;;;;18.60;11.90;;;;;;;12.55;100.00;99873.23;273053;1271;22748;-85
2023/09/08 01:12:57;;;;;;;16.60;11.10;;;;;;;12.45;100.00;99865.45;271211;1272;22423;-85
2023/09/08 01:18:59;;;;;;;17.60;13.00;;;;;;;12.41;100.00;99862.23;273004;1272;22358;-85
2023/09/08 01:25:18;;;;;;;18.80;12.00;;;;;;;12.37;100.00;99861.54;269378;1272;22536;-85
2023/09/08 01:31:20;;;;;;;19.50;13.40;;;;;;;12.31;100.00;99863.84;269898;1273;25557;-84
2023/09/08 01:37:25;;;;;;;18.40;12.40;;;;;;;12.20;100.00;99870.00;272417;1272;23407;-86
2023/09/08 01:43:26;;;;;;;20.70;12.90;;;;;;;12.10;100.00;99868.41;270275;1272;23441;-85
2023/09/08 01:49:28;;;;;;;16.50;12.40;;;;;;;12.07;100.00;99862.08;270857;1272;22584;-85
2023/09/08 01:55:30;;;;;;;13.30;10.10;;;;;;;12.09;100.00;99867.54;269977;1270;24977;-85
2023/09/08 02:01:36;;;;;;;16.10;11.30;;;;;;;12.12;100.00;99868.61;270674;1274;22619;-85
2023/09/08 02:07:38;;;;;;;13.70;9.40;;;;;;;12.13;100.00;99862.35;270826;1272;22616;-85
2023/09/08 02:13:42;;;;;;;17.60;11.00;;;;;;;12.14;100.00;99869.11;270104;1271;22468;-86
2023/09/08 02:19:43;;;;;;;14.10;10.50;;;;;;;12.11;100.00;99867.40;270957;1272;22356;-86
2023/09/08 02:25:45;;;;;;;15.10;9.90;;;;;;;12.03;100.00;99863.56;273359;1278;22215;-86
2023/09/08 02:31:50;;;;;;;17.60;11.30;;;;;;;11.92;100.00;99867.44;272660;1272;22248;-85
2023/09/08 02:37:51;;;;;;;18.80;11.80;;;;;;;11.86;100.00;99861.38;273157;1275;22919;-86
2023/09/08 02:44:14;;;;;;;15.90;11.20;;;;;;;11.77;100.00;99856.25;272791;1272;22379;-86
2023/09/08 02:50:16;;;;;;;14.00;10.20;;;;;;;11.70;100.00;99849.68;270096;1271;22519;-86
2023/09/08 02:56:17;;;;;;;15.10;10.20;;;;;;;11.68;100.00;99845.16;272013;1270;24248;-85
2023/09/08 03:02:19;;;;;;;20.70;10.40;;;;;;;11.65;100.00;99844.70;269607;1266;22559;-85
2023/09/08 03:08:22;;;;;;;15.80;10.50;;;;;;;11.61;100.00;99841.80;269660;1254;22547;-85
2023/09/08 03:14:24;;;;;;;14.10;10.00;;;;;;;11.59;100.00;99837.35;269419;1271;22667;-85
2023/09/08 03:20:27;;;;;;;15.70;10.50;;;;;;;11.60;100.00;99834.00;269574;1267;22564;-85
2023/09/08 03:26:31;;;;;;;13.90;10.30;;;;;;;11.54;100.00;99828.16;269309;1272;23096;-85
2023/09/08 03:32:33;;;;;;;14.20;10.20;;;;;;;11.49;100.00;99823.66;272604;1272;22229;-85
2023/09/08 03:38:37;;;;;;;15.70;11.00;;;;;;;11.41;100.00;99815.81;273040;1272;22379;-85
2023/09/08 03:44:49;;;;;;;12.90;9.70;;;;;;;11.33;100.00;99811.66;273297;1272;22235;-85
2023/09/08 03:50:51;;;;;;;12.50;9.30;;;;;;;11.28;100.00;99808.96;273091;1266;22650;-84
2023/09/08 03:56:52;;;;;;;18.90;11.60;;;;;;;11.27;100.00;99808.26;273097;1273;22217;-85
2023/09/08 04:02:54;;;;;;;14.80;10.70;;;;;;;11.31;100.00;99800.81;273226;1272;22884;-85
2023/09/08 04:08:57;;;;;;;16.50;10.70;;;;;;;11.31;100.00;99801.98;273298;1272;22263;-84
2023/09/08 04:14:59;;;;;;;13.70;9.30;;;;;;;11.32;100.00;99807.95;273179;1272;22482;-84
2023/09/08 04:21:01;;;;;;;13.90;9.20;;;;;;;11.30;100.00;99809.64;273241;1272;22277;-84
2023/09/08 04:27:03;;;;;;;13.80;9.50;;;;;;;11.30;100.00;99810.98;271627;1267;22607;-84
2023/09/08 04:33:05;;;;;;;16.60;9.50;;;;;;;11.27;100.00;99810.20;273062;1271;22270;-84
2023/09/08 04:39:10;;;;;;;14.10;10.10;;;;;;;11.27;100.00;99814.27;273098;1273;22324;-84
2023/09/08 04:45:13;;;;;;;15.60;10.60;;;;;;;11.26;100.00;99815.27;273231;1278;22223;-84
2023/09/08 04:51:18;;;;;;;17.10;10.60;;;;;;;11.33;100.00;99817.39;272782;1272;22290;-84
2023/09/08 04:57:23;;;;;;;14.20;10.50;;;;;;;11.49;100.00;99822.42;272767;1271;22515;-85
2023/09/08 05:03:28;;;;;;;18.70;11.30;;;;;;;11.67;100.00;99817.72;272782;1272;23564;-84
2023/09/08 05:09:30;;;;;;;13.90;11.00;;;;;;;11.89;100.00;99820.02;273062;1272;23347;-84
2023/09/08 05:15:48;;;;;;;16.80;11.60;;;;;;;12.06;100.00;99821.13;273163;1275;22262;-85
2023/09/08 05:21:51;;;;;;;16.30;11.50;;;;;;;12.13;100.00;99820.00;273042;1272;22329;-85
2023/09/08 05:27:53;;;;;;;15.30;11.10;;;;;;;12.32;100.00;99820.57;272969;1256;23812;-84
2023/09/08 05:33:56;;;;;;;18.30;13.70;;;;;;;12.61;100.00;99824.73;272718;1272;22486;-84
2023/09/08 05:39:59;;;;;;;17.60;14.00;;;;;;;12.99;100.00;99821.89;271604;1272;22548;-85
2023/09/08 05:46:02;;;;;;;19.70;15.40;;;;;;;13.52;100.00;99822.30;270241;1262;23699;-85
2023/09/08 05:52:04;;;;;;;31.30;19.00;;;;;;;14.09;100.00;99821.06;269990;1265;22536;-85
2023/09/08 05:58:10;;;;;;;26.20;17.70;;;;;;;14.55;100.00;99824.19;270418;1266;23769;-85
2023/09/08 06:04:14;;;;;;;24.00;18.00;;;;;;;14.83;100.00;99825.28;271179;1264;22306;-85
2023/09/08 06:10:19;;;;;;;22.00;16.80;;;;;;;15.12;100.00;99822.55;272326;1271;22587;-84
2023/09/08 06:16:23;;;;;;;24.20;16.20;;;;;;;15.44;100.00;99824.72;272650;1272;22207;-86
2023/09/08 06:22:25;;;;;;;24.70;16.80;;;;;;;15.83;100.00;99826.77;271977;1272;23119;-85
2023/09/08 06:28:27;;;;;;;26.40;18.10;;;;;;;16.01;100.00;99825.16;269930;1272;22558;-84
2023/09/08 06:34:29;;;;;;;29.40;20.40;;;;;;;16.16;100.00;99827.73;269541;1272;23857;-84
2023/09/08 06:40:31;;;;;;;28.30;19.60;;;;;;;16.32;100.00;99834.77;270261;1272;22616;-84
2023/09/08 06:46:33;;;;;;;33.60;23.20;;;;;;;16.36;100.00;99835.25;269626;1272;23847;-84
2023/09/08 06:52:35;;;;;;;31.80;23.30;;;;;;;16.32;100.00;99830.13;270011;1266;24216;-84
2023/09/08 06:58:38;;;;;;;34.10;22.40;;;;;;;16.35;100.00;99824.28;272889;1272;22339;-84
2023/09/08 07:04:41;;;;;;;31.70;20.60;;;;;;;16.46;100.00;99825.51;272835;1272;22230;-85
2023/09/08 07:10:44;;;;;;;26.70;19.60;;;;;;;16.58;100.00;99824.16;273049;1272;22346;-84
2023/09/08 07:16:46;;;;;;;26.20;18.30;;;;;;;16.80;100.00;99826.05;273059;1272;22345;-85
2023/09/08 07:22:48;;;;;;;23.20;17.30;;;;;;;17.02;100.00;99825.16;272836;1272;23432;-85
2023/09/08 07:28:55;;;;;;;24.70;17.30;;;;;;;17.19;100.00;99827.02;272817;1272;22175;-84
2023/09/08 07:34:59;;;;;;;25.70;16.10;;;;;;;17.44;100.00;99823.17;273065;1271;22231;-85
2023/09/08 07:41:01;;;;;;;21.70;15.50;;;;;;;17.70;100.00;99822.92;273077;1272;23247;-85
2023/09/08 07:47:24;;;;;;;23.50;14.10;;;;;;;17.98;100.00;99825.33;273094;1275;22198;-84
2023/09/08 07:53:26;;;;;;;20.10;14.30;;;;;;;18.37;100.00;99828.25;273079;1272;22348;-84
2023/09/08 07:59:29;;;;;;;20.80;12.90;;;;;;;18.77;100.00;99822.79;273063;1270;23658;-85
2023/09/08 08:05:31;;;;;;;17.90;12.40;;;;;;;19.21;100.00;99820.39;273120;1272;22312;-86
2023/09/08 08:11:32;;;;;;;18.60;11.50;;;;;;;19.68;100.00;99814.06;273108;1272;22327;-85
2023/09/08 08:17:35;;;;;;;13.40;10.60;;;;;;;20.07;100.00;99808.70;273051;1272;22348;-85
2023/09/08 08:23:38;;;;;;;12.60;10.40;;;;;;;20.33;100.00;99806.20;273109;1272;22332;-85
2023/09/08 08:29:40;;;;;;;15.00;10.30;;;;;;;20.59;100.00;99806.41;273264;1273;22118;-86
2023/09/08 08:35:48;;;;;;;13.80;10.10;;;;;;;20.80;100.00;99803.84;272750;1272;22409;-86
2023/09/08 08:42:10;;;;;;;15.40;9.50;;;;;;;20.97;100.00;99797.66;273135;1272;23325;-85
2023/09/08 08:48:13;;;;;;;11.70;9.00;;;;;;;21.17;100.00;99797.46;273067;1272;22498;-86
2023/09/08 08:54:35;;;;;;;15.40;9.70;;;;;;;21.35;100.00;99794.48;273121;1272;22176;-86
2023/09/08 09:00:37;;;;;;;11.10;8.40;;;;;;;21.65;100.00;99782.48;272780;1272;22326;-87
2023/09/08 09:06:39;;;;;;;13.00;8.30;;;;;;;22.12;100.00;99781.00;272863;1272;22552;-86
2023/09/08 09:12:41;;;;;;;12.30;8.30;;;;;;;22.77;100.00;99779.95;271984;1272;22630;-86
2023/09/08 09:18:55;;;;;;;12.60;8.80;;;;;;;23.50;99.97;99775.11;272090;1272;23504;-86
2023/09/08 09:25:00;;;;;;;15.80;8.50;;;;;;;24.14;98.31;99772.46;270718;1272;22238;-86
2023/09/08 09:31:04;;;;;;;10.40;7.80;;;;;;;24.76;96.60;99772.99;270316;1272;25422;-86
2023/09/08 09:37:09;;;;;;;10.50;8.60;;;;;;;25.42;93.89;99774.34;269267;1273;22564;-87
2023/09/08 09:43:13;;;;;;;14.10;7.70;;;;;;;25.96;90.75;99765.80;271237;1272;22680;-87
2023/09/08 09:49:20;;;;;;;9.70;7.80;;;;;;;26.70;88.64;99757.44;271974;1273;22553;-86
2023/09/08 09:55:24;;;;;;;12.70;7.70;;;;;;;27.36;86.92;99748.42;269054;1269;23854;-86
2023/09/08 10:01:26;;;;;;;11.10;7.00;;;;;;;27.84;84.08;99747.04;270492;1272;22615;-86
2023/09/08 10:07:28;;;;;;;8.10;6.80;;;;;;;27.96;78.94;99742.00;272530;1272;23702;-87
2023/09/08 10:13:31;;;;;;;9.70;7.10;;;;;;;28.51;77.55;99740.45;270725;1273;24252;-86
2023/09/08 10:19:54;;;;;;;9.50;7.00;;;;;;;29.04;75.70;99740.33;270359;1272;22463;-88
2023/09/08 10:25:59;;;;;;;11.00;6.50;;;;;;;29.43;74.94;99732.72;272988;1278;22093;-87
2023/09/08 10:32:03;;;;;;;12.50;7.00;;;;;;;29.83;71.82;99721.55;272727;1272;22325;-87
2023/09/08 10:38:28;;;;;;;11.10;6.10;;;;;;;30.14;70.12;99716.56;272920;1272;22427;-86
2023/09/08 10:44:32;;;;;;;8.10;6.20;;;;;;;30.25;68.57;99721.35;272749;1272;22166;-87
2023/09/08 10:50:39;;;;;;;8.40;6.20;;;;;;;30.09;66.90;99713.55;272789;1272;23619;-88
2023/09/08 10:56:55;;;;;;;7.30;5.90;;;;;;;30.07;65.79;99708.71;272736;1272;22335;-88
2023/09/08 11:02:58;;;;;;;9.90;5.90;;;;;;;30.00;64.60;99704.89;272239;1272;22179;-89
2023/09/08 11:09:09;;;;;;;9.00;6.50;;;;;;;29.93;63.28;99698.89;272706;1272;23563;-89
2023/09/08 11:15:13;;;;;;;9.80;6.60;;;;;;;29.95;62.78;99697.33;272551;1274;190345;-89
2023/09/08 11:21:15;;;;;;;9.90;7.00;;;;;;;29.68;61.27;99693.27;272666;1273;23316;-89
2023/09/08 11:27:20;;;;;;;11.60;6.70;;;;;;;29.45;61.36;99692.61;272785;1272;24133;-88
2023/09/08 11:33:43;;;;;;;8.50;6.60;;;;;;;29.09;61.53;99689.51;272808;1272;23153;-88
2023/09/08 11:39:48;;;;;;;8.90;6.50;;;;;;;28.67;61.35;99692.36;272693;1272;23653;-89
2023/09/08 11:45:54;;;;;;;13.00;6.20;;;;;;;28.19;60.96;99690.10;272789;1272;22369;-88
2023/09/08 11:52:08;;;;;;;9.00;7.10;;;;;;;27.76;60.71;99689.63;272630;1272;22399;-89
2023/09/08 11:58:12;;;;;;;8.60;6.00;;;;;;;27.40;60.72;99683.85;272513;1272;22373;-88
2023/09/08 12:04:21;;;;;;;9.70;7.30;;;;;;;27.16;60.31;99680.29;272800;1272;22322;-89
2023/09/08 12:10:27;;;;;;;8.00;6.10;;;;;;;26.90;60.36;99676.98;272721;1271;22296;-89
2023/09/08 12:16:29;;;;;;;7.00;5.90;;;;;;;26.68;60.76;99674.83;272751;1272;22399;-89
2023/09/08 12:22:55;;;;;;;8.40;6.20;;;;;;;26.51;61.28;99667.18;272465;1272;22505;-88
2023/09/08 12:28:57;;;;;;;6.30;5.70;;;;;;;26.43;60.94;99660.88;272609;1272;22451;-89
2023/09/08 12:35:04;;;;;;;10.50;6.80;;;;;;;26.35;60.55;99655.52;271712;1272;22336;-88
2023/09/08 12:41:09;;;;;;;7.60;6.10;;;;;;;26.17;60.60;99652.75;272421;1272;22318;-88
2023/09/08 12:47:14;;;;;;;8.30;5.80;;;;;;;26.03;61.38;99644.04;272810;1272;22266;-88
2023/09/08 12:53:19;;;;;;;10.10;6.30;;;;;;;25.99;61.57;99640.45;272500;1272;23269;-87
2023/09/08 12:59:21;;;;;;;8.50;5.60;;;;;;;25.99;61.44;99636.02;273058;1273;22177;-88
2023/09/08 13:05:28;;;;;;;7.30;5.50;;;;;;;25.92;61.65;99629.81;273022;1272;22462;-88
2023/09/08 13:11:32;;;;;;;7.40;6.10;;;;;;;25.82;61.50;99620.43;272909;1272;22295;-88
2023/09/08 13:17:34;;;;;;;9.80;6.10;;;;;;;25.73;61.68;99613.05;273120;1270;22465;-88
2023/09/08 13:23:36;;;;;;;10.70;5.70;;;;;;;25.62;61.89;99616.84;273098;1272;22333;-89
2023/09/08 13:29:38;;;;;;;7.10;5.50;;;;;;;25.55;62.20;99614.91;273076;1264;22308;-89
2023/09/08 13:35:40;;;;;;;10.90;6.00;;;;;;;25.53;62.42;99613.14;272990;1272;22365;-89
2023/09/08 13:41:55;;;;;;;6.30;5.40;;;;;;;25.55;61.95;99607.92;271820;1270;22417;-89
2023/09/08 13:47:57;;;;;;;11.30;5.90;;;;;;;25.54;61.99;99606.02;272025;1272;23257;-89
2023/09/08 13:53:59;;;;;;;8.30;5.80;;;;;;;25.47;62.07;99601.05;271047;1269;22356;-89
2023/09/08 14:00:05;;;;;;;10.00;5.40;;;;;;;25.31;62.02;99601.97;271845;1270;22870;-89
2023/09/08 14:06:11;;;;;;;7.20;5.50;;;;;;;25.21;62.23;99598.67;270615;1270;22523;-88
2023/09/08 14:12:15;;;;;;;9.20;6.00;;;;;;;25.16;62.14;99593.03;270148;1270;23401;-88
2023/09/08 14:18:17;;;;;;;7.40;5.30;;;;;;;25.10;62.28;99583.58;272570;1272;23699;-87
2023/09/08 14:24:19;;;;;;;7.60;5.60;;;;;;;25.03;62.13;99579.84;269752;1267;23838;-87
2023/09/08 14:30:21;;;;;;;9.20;6.50;;;;;;;24.96;62.30;99576.27;269643;1270;22608;-88
2023/09/08 14:36:22;;;;;;;9.10;5.70;;;;;;;24.91;62.39;99571.51;271673;1270;22367;-89
2023/09/08 14:42:24;;;;;;;8.90;6.00;;;;;;;24.79;62.73;99569.80;271530;1272;23218;-88
2023/09/08 14:48:26;;;;;;;7.60;5.60;;;;;;;24.80;62.94;99570.00;270264;1268;25260;-89
2023/09/08 14:54:28;;;;;;;7.00;5.00;;;;;;;24.80;62.65;99566.73;270682;1270;23272;-89
2023/09/08 15:00:32;;;;;;;7.50;5.50;;;;;;;24.71;63.19;99562.98;271409;1271;22323;-89
2023/09/08 15:06:38;;;;;;;6.40;5.30;;;;;;;24.60;63.59;99561.52;271128;1271;22291;-89
2023/09/08 15:12:41;;;;;;;8.20;5.50;;;;;;;24.54;63.22;99561.36;270619;1270;25414;-90
2023/09/08 15:18:43;;;;;;;7.40;5.10;;;;;;;24.43;63.57;99556.23;270619;1270;22518;-87
2023/09/08 15:24:46;;;;;;;8.90;5.70;;;;;;;24.34;64.41;99558.08;271775;1270;22329;-88
2023/09/08 15:30:52;;;;;;;6.50;5.20;;;;;;;24.25;64.75;99559.59;273018;1272;22202;-88
2023/09/08 15:36:54;;;;;;;13.00;5.60;;;;;;;24.18;64.86;99557.45;273141;1270;22293;-89
2023/09/08 15:42:56;;;;;;;7.10;5.20;;;;;;;24.12;65.24;99548.85;273051;1271;22157;-89
2023/09/08 15:49:24;;;;;;;8.80;5.80;;;;;;;24.01;65.58;99544.77;273061;1270;22539;-88
2023/09/08 15:55:26;;;;;;;6.10;4.80;;;;;;;23.91;66.06;99538.63;273110;1270;22203;-89
2023/09/08 16:01:30;;;;;;;8.30;5.70;;;;;;;23.83;66.43;99537.39;272076;1270;23351;-89
2023/09/08 16:07:47;;;;;;;9.30;5.30;;;;;;;23.74;67.29;99536.89;271192;1270;22313;-89
2023/09/08 16:14:06;;;;;;;11.50;6.70;;;;;;;23.63;67.76;99535.43;271957;1270;22371;-87
2023/09/08 16:20:26;;;;;;;7.70;5.30;;;;;;;23.50;68.82;99527.22;271020;1270;22334;-90
2023/09/08 16:27:09;;;;;;;8.40;5.70;;;;;;;23.35;69.51;99519.63;271861;1270;23336;-89
2023/09/08 16:33:31;;;;;;;9.30;5.30;;;;;;;23.22;70.55;99520.60;272183;1270;22155;-90
2023/09/08 16:39:56;;;;;;;9.50;6.20;;;;;;;23.06;71.31;99521.98;272536;1264;22391;-90
2023/09/08 16:46:02;;;;;;;7.80;5.40;;;;;;;22.88;71.96;99520.86;271905;1270;22565;-89
2023/09/08 16:52:04;;;;;;;8.40;5.90;;;;;;;22.71;73.10;99523.91;270515;1270;23832;-89
2023/09/08 16:58:07;;;;;;;8.10;6.20;;;;;;;22.51;74.20;99520.37;271735;1270;22345;-90
2023/09/08 17:04:12;;;;;;;8.10;6.70;;;;;;;22.29;75.51;99520.42;272153;1267;23197;-90
2023/09/08 17:10:19;;;;;;;9.60;6.30;;;;;;;22.01;77.13;99519.67;269752;1264;22580;-89
2023/09/08 17:16:21;;;;;;;12.70;7.50;;;;;;;21.66;78.29;99524.70;269384;1270;22549;-88
2023/09/08 17:22:25;;;;;;;10.40;7.50;;;;;;;21.35;79.28;99527.44;270788;1270;22564;-90
2023/09/08 17:28:31;;;;;;;10.00;7.40;;;;;;;21.08;79.87;99533.34;269739;1270;23046;-90
2023/09/08 17:34:39;;;;;;;12.10;8.00;;;;;;;20.84;80.81;99536.30;269739;1270;22611;-88
2023/09/08 17:40:44;;;;;;;12.60;7.90;;;;;;;20.54;81.43;99531.77;272030;1270;22351;-90
2023/09/08 17:46:47;;;;;;;13.50;8.20;;;;;;;20.32;82.48;99533.26;271867;1270;22514;-91
2023/09/08 17:52:52;;;;;;;16.00;8.50;;;;;;;20.18;83.66;99539.73;262601;1270;10001697;-89
2023/09/08 17:58:54;;;;;;;12.90;8.40;;;;;;;20.05;84.51;99546.14;271121;1270;22452;-89
2023/09/08 18:04:58;;;;;;;14.10;9.10;;;;;;;19.82;85.06;99548.69;273128;1270;23606;-90
2023/09/08 18:11:02;;;;;;;21.50;13.00;;;;;;;19.63;85.95;99547.59;272979;1270;23780;-90
2023/09/08 18:17:05;;;;;;;27.70;18.20;;;;;;;19.50;86.67;99547.25;272885;1271;22201;-89
2023/09/08 18:23:11;;;;;;;121.30;76.30;;;;;;;19.30;87.23;99554.92;272720;1270;22322;-89
2023/09/08 18:29:13;;;;;;;64.80;40.10;;;;;;;19.12;87.91;99561.11;272617;1269;22363;-89
2023/09/08 18:35:15;;;;;;;71.00;42.30;;;;;;;18.96;88.94;99559.53;272133;1270;25475;-89
2023/09/08 18:41:20;;;;;;;55.40;31.70;;;;;;;18.72;89.64;99556.27;270772;1270;23862;-89
2023/09/08 18:47:28;;;;;;;62.30;34.10;;;;;;;18.51;90.33;99554.25;270837;1270;22627;-89
2023/09/08 18:53:38;;;;;;;82.60;43.10;;;;;;;18.34;91.17;99548.08;270783;1270;22675;-89
2023/09/08 18:59:40;;;;;;;96.30;49.50;;;;;;;18.19;91.86;99549.19;272829;1270;23678;-89
2023/09/08 19:05:42;;;;;;;164.50;80.20;;;;;;;18.07;92.60;99552.72;272826;1270;22790;-87
2023/09/08 19:11:44;;;;;;;134.10;65.40;;;;;;;17.91;93.25;99548.77;272881;1271;23444;-89
2023/09/08 19:17:46;;;;;;;118.50;58.40;;;;;;;17.69;93.52;99553.47;272809;1270;23284;-89
2023/09/08 19:23:49;;;;;;;91.50;45.90;;;;;;;17.60;94.62;99559.80;273026;1270;22335;-88
2023/09/08 19:29:52;;;;;;;204.90;92.80;;;;;;;17.56;95.52;99562.13;273073;1270;22327;-89
2023/09/08 19:35:54;;;;;;;198.00;89.80;;;;;;;17.50;96.05;99558.30;272885;1270;22202;-89
2023/09/08 19:41:56;;;;;;;165.20;76.20;;;;;;;17.40;96.45;99558.67;273046;1270;22320;-89
2023/09/08 19:47:58;;;;;;;96.40;49.40;;;;;;;17.27;96.77;99558.45;272987;1270;22239;-89
2023/09/08 19:54:01;;;;;;;100.00;47.30;;;;;;;17.12;97.26;99552.92;273010;1269;22329;-89
2023/09/08 20:00:04;;;;;;;45.30;25.90;;;;;;;16.96;97.66;99558.17;271611;1270;22945;-89
2023/09/08 20:06:17;;;;;;;34.40;20.80;;;;;;;16.85;98.39;99557.04;271348;1270;22501;-89
2023/09/08 20:12:19;;;;;;;41.70;22.60;;;;;;;16.79;99.02;99558.96;272294;1270;23703;-88
2023/09/08 20:18:20;;;;;;;35.80;21.70;;;;;;;16.73;99.60;99561.29;272969;1270;22428;-88
2023/09/08 20:24:23;;;;;;;34.10;20.80;;;;;;;16.64;99.78;99560.05;272976;1270;22677;-88
2023/09/08 20:30:24;;;;;;;33.40;21.40;;;;;;;16.45;99.44;99561.86;272772;1254;22263;-88
2023/09/08 20:36:27;;;;;;;40.90;25.20;;;;;;;16.27;99.88;99572.39;272023;1270;22319;-88
2023/09/08 20:42:29;;;;;;;40.20;26.20;;;;;;;16.18;100.00;99573.36;273125;1270;22299;-88
2023/09/08 20:48:42;;;;;;;38.20;25.70;;;;;;;16.07;100.00;99566.61;273159;1264;22281;-88
2023/09/08 20:54:44;;;;;;;39.50;24.00;;;;;;;15.99;100.00;99570.25;273107;1270;22201;-87
2023/09/08 21:01:03;;;;;;;32.40;22.30;;;;;;;15.96;100.00;99572.78;273371;1278;22183;-88
2023/09/08 21:07:21;;;;;;;27.60;19.40;;;;;;;15.90;100.00;99574.19;273094;1270;22318;-88
2023/09/08 21:13:23;;;;;;;28.00;17.80;;;;;;;15.83;100.00;99574.05;272954;1270;22299;-87
2023/09/08 21:19:26;;;;;;;30.80;21.50;;;;;;;15.75;100.00;99572.80;272930;1271;22163;-88
2023/09/08 21:25:31;;;;;;;27.30;17.80;;;;;;;15.69;100.00;99576.58;272929;1270;23298;-87
2023/09/08 21:31:33;;;;;;;30.00;18.70;;;;;;;15.53;100.00;99581.38;273008;1270;22313;-88
2023/09/08 21:37:35;;;;;;;28.70;19.80;;;;;;;15.38;100.00;99583.96;272985;1270;22957;-86
2023/09/08 21:43:37;;;;;;;30.70;20.30;;;;;;;15.28;100.00;99578.41;271057;1270;22577;-88
2023/09/08 21:49:39;;;;;;;29.50;19.90;;;;;;;15.25;100.00;99582.67;271687;1270;23820;-89
2023/09/08 21:55:41;;;;;;;29.00;19.40;;;;;;;15.24;100.00;99579.59;270497;1270;22629;-88
2023/09/08 22:01:46;;;;;;;25.80;18.30;;;;;;;15.17;100.00;99576.35;269945;1270;22664;-88
2023/09/08 22:07:48;;;;;;;32.90;21.40;;;;;;;15.11;100.00;99572.00;272212;1270;22960;-88
2023/09/08 22:13:50;;;;;;;28.60;20.20;;;;;;;15.02;100.00;99568.75;273170;1270;22427;-88
2023/09/08 22:19:55;;;;;;;25.70;18.20;;;;;;;14.95;100.00;99565.66;270868;1270;22326;-88
2023/09/08 22:25:57;;;;;;;24.30;17.90;;;;;;;14.88;100.00;99565.34;273164;1270;22375;-89
2023/09/08 22:31:58;;;;;;;29.20;16.70;;;;;;;14.76;100.00;99567.27;270934;1270;22552;-88
2023/09/08 22:38:00;;;;;;;21.00;15.90;;;;;;;14.66;100.00;99566.37;270209;1270;25093;-88
2023/09/08 22:44:02;;;;;;;26.30;16.70;;;;;;;14.52;100.00;99562.84;271292;1270;22335;-89
2023/09/08 22:50:10;;;;;;;26.80;17.70;;;;;;;14.43;100.00;99554.62;271191;1270;25297;-89
2023/09/08 22:56:12;;;;;;;23.40;15.90;;;;;;;14.36;100.00;99558.98;271759;1270;23571;-88
2023/09/08 23:02:14;;;;;;;21.30;15.20;;;;;;;14.24;100.00;99550.48;273043;1270;22225;-89
2023/09/08 23:08:16;;;;;;;22.60;15.90;;;;;;;14.16;100.00;99551.38;273197;1270;22217;-88
2023/09/08 23:14:18;;;;;;;25.10;16.40;;;;;;;14.15;100.00;99551.86;272900;1270;22335;-88
2023/09/08 23:20:21;;;;;;;24.90;16.90;;;;;;;14.12;100.00;99551.92;271891;1270;22320;-88
2023/09/08 23:26:26;;;;;;;24.50;16.40;;;;;;;14.12;100.00;99548.68;272104;1270;22194;-88
2023/09/08 23:32:28;;;;;;;22.60;15.30;;;;;;;14.09;100.00;99540.56;272928;1270;23215;-88
2023/09/08 23:38:30;;;;;;;22.10;15.10;;;;;;;14.01;100.00;99531.55;271284;1270;22666;-88
2023/09/08 23:44:32;;;;;;;19.20;13.80;;;;;;;13.96;100.00;99530.81;270816;1270;22523;-88
2023/09/08 23:50:49;;;;;;;20.20;14.80;;;;;;;13.89;100.00;99528.27;271798;1266;23046;-88
2023/09/08 23:56:50;;;;;;;24.50;16.40;;;;;;;13.85;100.00;99525.40;271721;1271;22195;-88
